sensor_id;sensor_type;location;lat;lon;timestamp;P1;P2;P0
64861;PMS5003;62652;42.274;-71.436;2024-01-25T00:00:00;31.50;27.30;15.43
64861;PMS5003;62652;42.274;-71.436;2024-01-25T00:01:00;35.60;30.33;16.57
64861;PMS5003;62652;42.274;-71.436;2024-01-25T00:02:00;30.93;25.03;13.73
64861;PMS5003;62652;42.274;-71.436;2024-01-25T00:03:00;27.43;25.27;14.47
64861;PMS5003;62652;42.274;-71.436;2024-01-25T00:04:00;32.60;28.47;15.67
64861;PMS5003;62652;42.274;-71.436;2024-01-25T00:05:00;26.10;23.13;14.20
64861;PMS5003;62652;42.274;-71.436;2024-01-25T00:06:00;28.90;26.17;14.93
64861;PMS5003;62652;42.274;-71.436;2024-01-25T00:07:00;31.33;26.37;15.87
64861;PMS5003;62652;42.274;-71.436;2024-01-25T00:08:00;27.70;25.73;16.00
64861;PMS5003;62652;42.274;-71.436;2024-01-25T00:09:00;27.40;22.50;14.73
64861;PMS5003;62652;42.274;-71.436;2024-01-25T00:10:00;30.70;29.47;15.07
64861;PMS5003;62652;42.274;-71.436;2024-01-25T00:11:01;26.80;23.67;14.80
64861;PMS5003;62652;42.274;-71.436;2024-01-25T00:12:00;27.10;25.73;13.83
64861;PMS5003;62652;42.274;-71.436;2024-01-25T00:13:00;29.43;24.27;14.27
64861;PMS5003;62652;42.274;-71.436;2024-01-25T00:14:00;37.53;31.20;15.60
64861;PMS5003;62652;42.274;-71.436;2024-01-25T00:15:00;33.97;28.20;16.57
64861;PMS5003;62652;42.274;-71.436;2024-01-25T00:16:00;30.47;27.40;16.57
64861;PMS5003;62652;42.274;-71.436;2024-01-25T00:17:00;29.40;27.83;15.47
64861;PMS5003;62652;42.274;-71.436;2024-01-25T00:18:00;31.03;28.30;15.27
64861;PMS5003;62652;42.274;-71.436;2024-01-25T00:19:00;29.87;27.67;16.67
64861;PMS5003;62652;42.274;-71.436;2024-01-25T00:20:00;37.83;32.37;16.87
64861;PMS5003;62652;42.274;-71.436;2024-01-25T00:21:00;31.00;27.93;16.47
64861;PMS5003;62652;42.274;-71.436;2024-01-25T00:22:00;32.13;28.37;17.30
64861;PMS5003;62652;42.274;-71.436;2024-01-25T00:23:00;38.17;33.73;18.80
64861;PMS5003;62652;42.274;-71.436;2024-01-25T00:24:00;33.57;30.87;17.60
64861;PMS5003;62652;42.274;-71.436;2024-01-25T00:25:00;34.50;32.20;19.20
64861;PMS5003;62652;42.274;-71.436;2024-01-25T00:26:00;32.83;29.90;18.80
64861;PMS5003;62652;42.274;-71.436;2024-01-25T00:27:00;39.40;31.80;17.93
64861;PMS5003;62652;42.274;-71.436;2024-01-25T00:28:00;44.80;36.13;19.83
64861;PMS5003;62652;42.274;-71.436;2024-01-25T00:29:00;39.90;34.33;20.67
64861;PMS5003;62652;42.274;-71.436;2024-01-25T00:30:00;49.00;38.33;21.50
64861;PMS5003;62652;42.274;-71.436;2024-01-25T00:31:00;47.87;39.77;21.80
64861;PMS5003;62652;42.274;-71.436;2024-01-25T00:32:00;47.50;39.17;23.80
64861;PMS5003;62652;42.274;-71.436;2024-01-25T00:33:00;45.03;37.17;21.37
64861;PMS5003;62652;42.274;-71.436;2024-01-25T00:34:01;42.70;36.43;21.53
64861;PMS5003;62652;42.274;-71.436;2024-01-25T00:35:01;47.13;39.20;23.47
64861;PMS5003;62652;42.274;-71.436;2024-01-25T00:36:00;47.67;39.07;24.53
64861;PMS5003;62652;42.274;-71.436;2024-01-25T00:37:00;48.60;39.53;23.13
64861;PMS5003;62652;42.274;-71.436;2024-01-25T00:38:00;48.87;37.87;23.07
64861;PMS5003;62652;42.274;-71.436;2024-01-25T00:39:00;47.77;38.23;23.07
64861;PMS5003;62652;42.274;-71.436;2024-01-25T00:40:00;44.67;36.77;21.13
64861;PMS5003;62652;42.274;-71.436;2024-01-25T00:41:00;41.00;35.20;21.73
64861;PMS5003;62652;42.274;-71.436;2024-01-25T00:42:02;43.07;35.90;21.17
64861;PMS5003;62652;42.274;-71.436;2024-01-25T00:43:00;40.47;34.17;20.47
64861;PMS5003;62652;42.274;-71.436;2024-01-25T00:44:00;34.00;30.63;20.43
64861;PMS5003;62652;42.274;-71.436;2024-01-25T00:45:00;32.87;31.07;18.93
64861;PMS5003;62652;42.274;-71.436;2024-01-25T00:46:01;39.83;34.60;18.93
64861;PMS5003;62652;42.274;-71.436;2024-01-25T00:47:00;39.93;33.70;18.40
64861;PMS5003;62652;42.274;-71.436;2024-01-25T00:48:00;34.47;31.43;19.03
64861;PMS5003;62652;42.274;-71.436;2024-01-25T00:49:00;37.17;32.83;20.63
64861;PMS5003;62652;42.274;-71.436;2024-01-25T00:50:00;38.37;33.43;20.07
64861;PMS5003;62652;42.274;-71.436;2024-01-25T00:51:00;40.77;34.67;20.53
64861;PMS5003;62652;42.274;-71.436;2024-01-25T00:52:00;36.60;32.20;19.23
64861;PMS5003;62652;42.274;-71.436;2024-01-25T00:53:00;38.60;32.23;19.80
64861;PMS5003;62652;42.274;-71.436;2024-01-25T00:54:00;34.50;32.27;19.80
64861;PMS5003;62652;42.274;-71.436;2024-01-25T00:55:00;38.03;32.13;20.30
64861;PMS5003;62652;42.274;-71.436;2024-01-25T00:56:00;38.57;33.63;19.10
64861;PMS5003;62652;42.274;-71.436;2024-01-25T00:57:01;32.80;29.60;18.17
64861;PMS5003;62652;42.274;-71.436;2024-01-25T00:58:00;43.83;36.20;20.73
64861;PMS5003;62652;42.274;-71.436;2024-01-25T00:59:00;61.67;48.90;30.27
64861;PMS5003;62652;42.274;-71.436;2024-01-25T01:00:00;66.13;51.63;31.50
64861;PMS5003;62652;42.274;-71.436;2024-01-25T01:01:00;66.43;52.50;32.30
64861;PMS5003;62652;42.274;-71.436;2024-01-25T01:02:00;67.73;52.63;32.10
64861;PMS5003;62652;42.274;-71.436;2024-01-25T01:03:00;71.20;53.40;33.13
64861;PMS5003;62652;42.274;-71.436;2024-01-25T01:04:00;61.00;49.23;30.23
64861;PMS5003;62652;42.274;-71.436;2024-01-25T01:05:00;65.20;51.63;32.00
64861;PMS5003;62652;42.274;-71.436;2024-01-25T01:06:00;72.53;54.97;33.97
64861;PMS5003;62652;42.274;-71.436;2024-01-25T01:07:00;70.37;52.80;33.50
64861;PMS5003;62652;42.274;-71.436;2024-01-25T01:08:01;65.87;50.97;32.13
64861;PMS5003;62652;42.274;-71.436;2024-01-25T01:09:00;63.07;49.07;30.17
64861;PMS5003;62652;42.274;-71.436;2024-01-25T01:10:00;59.67;48.33;29.70
64861;PMS5003;62652;42.274;-71.436;2024-01-25T01:11:00;51.10;41.40;27.37
64861;PMS5003;62652;42.274;-71.436;2024-01-25T01:12:00;53.40;42.07;26.97
64861;PMS5003;62652;42.274;-71.436;2024-01-25T01:13:00;52.43;41.70;26.33
64861;PMS5003;62652;42.274;-71.436;2024-01-25T01:14:00;58.60;46.30;28.30
64861;PMS5003;62652;42.274;-71.436;2024-01-25T01:15:00;66.33;52.87;34.00
64861;PMS5003;62652;42.274;-71.436;2024-01-25T01:16:00;81.13;67.90;42.03
64861;PMS5003;62652;42.274;-71.436;2024-01-25T01:17:00;81.53;67.80;43.47
64861;PMS5003;62652;42.274;-71.436;2024-01-25T01:18:00;82.50;68.00;43.43
64861;PMS5003;62652;42.274;-71.436;2024-01-25T01:19:00;83.43;68.60;42.47
64861;PMS5003;62652;42.274;-71.436;2024-01-25T01:20:00;74.53;59.03;37.80
64861;PMS5003;62652;42.274;-71.436;2024-01-25T01:21:00;68.40;53.63;33.03
64861;PMS5003;62652;42.274;-71.436;2024-01-25T01:22:00;64.67;51.20;32.07
64861;PMS5003;62652;42.274;-71.436;2024-01-25T01:23:00;56.20;45.50;29.17
64861;PMS5003;62652;42.274;-71.436;2024-01-25T01:24:00;53.43;43.43;28.17
64861;PMS5003;62652;42.274;-71.436;2024-01-25T01:25:00;51.93;43.07;28.47
64861;PMS5003;62652;42.274;-71.436;2024-01-25T01:26:00;55.33;44.73;28.80
64861;PMS5003;62652;42.274;-71.436;2024-01-25T01:27:00;59.17;46.37;30.00
64861;PMS5003;62652;42.274;-71.436;2024-01-25T01:28:00;58.97;47.87;30.03
64861;PMS5003;62652;42.274;-71.436;2024-01-25T01:29:00;56.90;45.73;30.00
64861;PMS5003;62652;42.274;-71.436;2024-01-25T01:30:01;55.27;44.20;28.37
64861;PMS5003;62652;42.274;-71.436;2024-01-25T01:31:00;53.10;43.30;28.00
64861;PMS5003;62652;42.274;-71.436;2024-01-25T01:32:00;50.20;40.80;25.70
64861;PMS5003;62652;42.274;-71.436;2024-01-25T01:33:00;50.27;41.17;25.93
64861;PMS5003;62652;42.274;-71.436;2024-01-25T01:34:00;46.00;39.20;24.97
64861;PMS5003;62652;42.274;-71.436;2024-01-25T01:35:00;43.37;37.20;22.90
64861;PMS5003;62652;42.274;-71.436;2024-01-25T01:36:00;49.07;39.60;25.77
64861;PMS5003;62652;42.274;-71.436;2024-01-25T01:37:00;50.07;40.70;24.50
64861;PMS5003;62652;42.274;-71.436;2024-01-25T01:38:00;39.87;34.67;22.23
64861;PMS5003;62652;42.274;-71.436;2024-01-25T01:39:00;50.43;41.97;27.47
64861;PMS5003;62652;42.274;-71.436;2024-01-25T01:40:00;55.40;43.87;28.43
64861;PMS5003;62652;42.274;-71.436;2024-01-25T01:41:00;54.23;43.77;26.73
64861;PMS5003;62652;42.274;-71.436;2024-01-25T01:42:00;48.73;39.23;24.30
64861;PMS5003;62652;42.274;-71.436;2024-01-25T01:43:00;43.33;36.33;23.20
64861;PMS5003;62652;42.274;-71.436;2024-01-25T01:44:00;38.03;32.93;20.90
64861;PMS5003;62652;42.274;-71.436;2024-01-25T01:45:00;40.27;35.40;21.13
64861;PMS5003;62652;42.274;-71.436;2024-01-25T01:46:01;40.77;34.23;21.77
64861;PMS5003;62652;42.274;-71.436;2024-01-25T01:47:00;40.00;34.17;21.13
64861;PMS5003;62652;42.274;-71.436;2024-01-25T01:48:00;40.27;34.30;20.87
64861;PMS5003;62652;42.274;-71.436;2024-01-25T01:49:00;39.00;34.37;21.43
64861;PMS5003;62652;42.274;-71.436;2024-01-25T01:50:00;41.57;36.03;21.37
64861;PMS5003;62652;42.274;-71.436;2024-01-25T01:51:00;44.40;37.17;21.33
64861;PMS5003;62652;42.274;-71.436;2024-01-25T01:52:00;40.07;34.83;21.60
64861;PMS5003;62652;42.274;-71.436;2024-01-25T01:53:00;34.40;32.23;20.60
64861;PMS5003;62652;42.274;-71.436;2024-01-25T01:54:00;36.07;33.03;20.00
64861;PMS5003;62652;42.274;-71.436;2024-01-25T01:55:00;34.00;31.80;20.13
64861;PMS5003;62652;42.274;-71.436;2024-01-25T01:56:00;34.60;30.43;18.87
64861;PMS5003;62652;42.274;-71.436;2024-01-25T01:57:00;36.80;31.70;18.30
64861;PMS5003;62652;42.274;-71.436;2024-01-25T01:58:00;34.23;30.60;18.50
64861;PMS5003;62652;42.274;-71.436;2024-01-25T01:59:00;35.20;31.30;18.40
64861;PMS5003;62652;42.274;-71.436;2024-01-25T02:00:00;31.53;27.20;18.10
64861;PMS5003;62652;42.274;-71.436;2024-01-25T02:01:00;28.63;26.67;17.93
64861;PMS5003;62652;42.274;-71.436;2024-01-25T02:02:00;33.60;29.43;17.80
64861;PMS5003;62652;42.274;-71.436;2024-01-25T02:03:00;31.83;29.20;18.23
64861;PMS5003;62652;42.274;-71.436;2024-01-25T02:04:00;26.03;23.07;16.13
64861;PMS5003;62652;42.274;-71.436;2024-01-25T02:05:00;31.37;28.13;16.53
64861;PMS5003;62652;42.274;-71.436;2024-01-25T02:06:00;26.20;24.97;15.73
64861;PMS5003;62652;42.274;-71.436;2024-01-25T02:07:00;31.30;28.43;16.57
64861;PMS5003;62652;42.274;-71.436;2024-01-25T02:08:00;27.90;26.73;16.80
64861;PMS5003;62652;42.274;-71.436;2024-01-25T02:09:00;29.60;26.73;17.50
64861;PMS5003;62652;42.274;-71.436;2024-01-25T02:10:00;30.10;26.60;16.40
64861;PMS5003;62652;42.274;-71.436;2024-01-25T02:11:00;28.73;26.77;17.50
64861;PMS5003;62652;42.274;-71.436;2024-01-25T02:12:00;27.80;24.83;16.57
64861;PMS5003;62652;42.274;-71.436;2024-01-25T02:13:00;32.33;29.30;17.37
64861;PMS5003;62652;42.274;-71.436;2024-01-25T02:14:00;27.53;27.13;16.47
64861;PMS5003;62652;42.274;-71.436;2024-01-25T02:15:00;29.17;27.17;17.33
64861;PMS5003;62652;42.274;-71.436;2024-01-25T02:16:00;33.97;31.73;20.73
64861;PMS5003;62652;42.274;-71.436;2024-01-25T02:17:00;36.60;32.00;20.87
64861;PMS5003;62652;42.274;-71.436;2024-01-25T02:18:00;35.63;31.43;20.23
64861;PMS5003;62652;42.274;-71.436;2024-01-25T02:19:00;29.90;28.30;18.00
64861;PMS5003;62652;42.274;-71.436;2024-01-25T02:20:00;40.13;34.50;21.50
64861;PMS5003;62652;42.274;-71.436;2024-01-25T02:21:00;38.47;34.27;20.77
64861;PMS5003;62652;42.274;-71.436;2024-01-25T02:22:00;36.83;32.57;20.13
64861;PMS5003;62652;42.274;-71.436;2024-01-25T02:23:00;33.50;30.63;18.53
64861;PMS5003;62652;42.274;-71.436;2024-01-25T02:24:00;39.83;33.87;21.27
64861;PMS5003;62652;42.274;-71.436;2024-01-25T02:25:02;47.33;38.23;25.23
64861;PMS5003;62652;42.274;-71.436;2024-01-25T02:26:00;44.80;36.60;23.50
64861;PMS5003;62652;42.274;-71.436;2024-01-25T02:27:00;44.70;37.70;23.57
64861;PMS5003;62652;42.274;-71.436;2024-01-25T02:28:00;37.67;34.17;22.73
64861;PMS5003;62652;42.274;-71.436;2024-01-25T02:29:00;46.33;37.83;24.40
64861;PMS5003;62652;42.274;-71.436;2024-01-25T02:30:00;43.37;37.07;22.43
64861;PMS5003;62652;42.274;-71.436;2024-01-25T02:31:00;41.70;36.97;21.63
64861;PMS5003;62652;42.274;-71.436;2024-01-25T02:32:00;43.83;36.00;22.67
64861;PMS5003;62652;42.274;-71.436;2024-01-25T02:33:00;50.87;41.43;24.33
64861;PMS5003;62652;42.274;-71.436;2024-01-25T02:34:00;62.80;49.87;29.03
64861;PMS5003;62652;42.274;-71.436;2024-01-25T02:35:00;63.57;49.37;28.83
64861;PMS5003;62652;42.274;-71.436;2024-01-25T02:36:01;55.37;44.00;26.37
64861;PMS5003;62652;42.274;-71.436;2024-01-25T02:37:00;50.53;41.03;23.93
64861;PMS5003;62652;42.274;-71.436;2024-01-25T02:38:00;42.07;35.47;20.13
64861;PMS5003;62652;42.274;-71.436;2024-01-25T02:39:00;44.93;37.70;22.77
64861;PMS5003;62652;42.274;-71.436;2024-01-25T02:40:00;50.97;41.43;24.70
64861;PMS5003;62652;42.274;-71.436;2024-01-25T02:41:00;38.47;32.47;20.13
64861;PMS5003;62652;42.274;-71.436;2024-01-25T02:42:00;40.00;34.60;20.70
64861;PMS5003;62652;42.274;-71.436;2024-01-25T02:43:00;38.63;33.63;18.77
64861;PMS5003;62652;42.274;-71.436;2024-01-25T02:44:00;42.57;35.93;19.73
64861;PMS5003;62652;42.274;-71.436;2024-01-25T02:45:00;44.07;35.53;21.53
64861;PMS5003;62652;42.274;-71.436;2024-01-25T02:46:00;40.83;35.40;20.07
64861;PMS5003;62652;42.274;-71.436;2024-01-25T02:47:01;41.10;34.73;21.27
64861;PMS5003;62652;42.274;-71.436;2024-01-25T02:48:00;46.60;37.83;21.37
64861;PMS5003;62652;42.274;-71.436;2024-01-25T02:49:00;41.37;34.43;21.00
64861;PMS5003;62652;42.274;-71.436;2024-01-25T02:50:00;44.40;35.13;21.17
64861;PMS5003;62652;42.274;-71.436;2024-01-25T02:51:00;47.73;38.63;22.30
64861;PMS5003;62652;42.274;-71.436;2024-01-25T02:52:00;42.23;35.90;20.93
64861;PMS5003;62652;42.274;-71.436;2024-01-25T02:53:01;41.27;35.90;20.90
64861;PMS5003;62652;42.274;-71.436;2024-01-25T02:54:00;37.87;33.87;19.67
64861;PMS5003;62652;42.274;-71.436;2024-01-25T02:55:00;38.30;33.73;18.93
64861;PMS5003;62652;42.274;-71.436;2024-01-25T02:56:00;37.80;32.20;19.63
64861;PMS5003;62652;42.274;-71.436;2024-01-25T02:57:00;36.30;31.80;20.27
64861;PMS5003;62652;42.274;-71.436;2024-01-25T02:58:00;34.30;31.53;20.10
64861;PMS5003;62652;42.274;-71.436;2024-01-25T02:59:00;32.60;30.43;20.33
64861;PMS5003;62652;42.274;-71.436;2024-01-25T03:00:00;36.87;31.43;19.03
64861;PMS5003;62652;42.274;-71.436;2024-01-25T03:01:00;34.37;31.57;19.47
64861;PMS5003;62652;42.274;-71.436;2024-01-25T03:02:00;36.30;32.73;19.30
64861;PMS5003;62652;42.274;-71.436;2024-01-25T03:03:00;33.27;30.57;18.03
64861;PMS5003;62652;42.274;-71.436;2024-01-25T03:04:00;38.33;32.33;19.80
64861;PMS5003;62652;42.274;-71.436;2024-01-25T03:05:00;40.73;34.30;20.40
64861;PMS5003;62652;42.274;-71.436;2024-01-25T03:06:00;36.87;33.80;20.60
64861;PMS5003;62652;42.274;-71.436;2024-01-25T03:07:00;39.10;34.00;20.80
64861;PMS5003;62652;42.274;-71.436;2024-01-25T03:08:00;46.83;36.13;21.30
64861;PMS5003;62652;42.274;-71.436;2024-01-25T03:09:00;49.27;40.60;22.93
64861;PMS5003;62652;42.274;-71.436;2024-01-25T03:10:00;51.10;41.37;23.00
64861;PMS5003;62652;42.274;-71.436;2024-01-25T03:11:00;45.03;36.33;21.57
64861;PMS5003;62652;42.274;-71.436;2024-01-25T03:12:00;44.57;34.50;20.67
64861;PMS5003;62652;42.274;-71.436;2024-01-25T03:13:00;41.90;36.57;21.30
64861;PMS5003;62652;42.274;-71.436;2024-01-25T03:14:00;43.93;36.03;21.20
64861;PMS5003;62652;42.274;-71.436;2024-01-25T03:15:00;50.23;41.73;24.83
64861;PMS5003;62652;42.274;-71.436;2024-01-25T03:16:00;51.90;41.07;24.20
64861;PMS5003;62652;42.274;-71.436;2024-01-25T03:17:00;50.73;40.23;21.90
64861;PMS5003;62652;42.274;-71.436;2024-01-25T03:18:00;50.43;39.73;22.17
64861;PMS5003;62652;42.274;-71.436;2024-01-25T03:19:00;47.57;38.27;21.47
64861;PMS5003;62652;42.274;-71.436;2024-01-25T03:20:00;45.37;38.33;22.50
64861;PMS5003;62652;42.274;-71.436;2024-01-25T03:21:00;49.47;40.33;22.33
64861;PMS5003;62652;42.274;-71.436;2024-01-25T03:22:00;46.93;37.83;20.93
64861;PMS5003;62652;42.274;-71.436;2024-01-25T03:23:00;48.33;37.50;21.23
64861;PMS5003;62652;42.274;-71.436;2024-01-25T03:24:00;42.27;35.63;21.00
64861;PMS5003;62652;42.274;-71.436;2024-01-25T03:25:00;45.53;37.50;20.97
64861;PMS5003;62652;42.274;-71.436;2024-01-25T03:26:01;44.63;38.10;20.87
64861;PMS5003;62652;42.274;-71.436;2024-01-25T03:27:00;38.13;32.67;19.40
64861;PMS5003;62652;42.274;-71.436;2024-01-25T03:28:00;41.83;35.80;19.87
64861;PMS5003;62652;42.274;-71.436;2024-01-25T03:29:00;51.07;40.07;23.17
64861;PMS5003;62652;42.274;-71.436;2024-01-25T03:30:00;55.20;42.93;25.30
64861;PMS5003;62652;42.274;-71.436;2024-01-25T03:31:01;51.63;40.53;24.57
64861;PMS5003;62652;42.274;-71.436;2024-01-25T03:32:00;50.27;40.30;22.53
64861;PMS5003;62652;42.274;-71.436;2024-01-25T03:33:00;47.50;36.87;21.77
64861;PMS5003;62652;42.274;-71.436;2024-01-25T03:34:00;52.13;41.40;23.60
64861;PMS5003;62652;42.274;-71.436;2024-01-25T03:35:00;42.07;36.00;20.67
64861;PMS5003;62652;42.274;-71.436;2024-01-25T03:36:01;38.27;32.37;18.00
64861;PMS5003;62652;42.274;-71.436;2024-01-25T03:37:00;40.00;33.73;19.37
64861;PMS5003;62652;42.274;-71.436;2024-01-25T03:38:00;37.63;32.27;18.53
64861;PMS5003;62652;42.274;-71.436;2024-01-25T03:39:00;43.13;35.37;20.17
64861;PMS5003;62652;42.274;-71.436;2024-01-25T03:40:00;40.80;35.10;20.27
64861;PMS5003;62652;42.274;-71.436;2024-01-25T03:41:00;43.43;35.37;21.07
64861;PMS5003;62652;42.274;-71.436;2024-01-25T03:42:00;44.67;36.50;20.87
64861;PMS5003;62652;42.274;-71.436;2024-01-25T03:43:00;36.80;33.20;21.00
64861;PMS5003;62652;42.274;-71.436;2024-01-25T03:44:00;40.27;34.13;20.80
64861;PMS5003;62652;42.274;-71.436;2024-01-25T03:45:00;41.17;32.40;19.97
64861;PMS5003;62652;42.274;-71.436;2024-01-25T03:46:00;32.80;30.97;18.90
64861;PMS5003;62652;42.274;-71.436;2024-01-25T03:47:00;41.17;33.33;19.03
64861;PMS5003;62652;42.274;-71.436;2024-01-25T03:48:00;38.37;33.03;19.57
64861;PMS5003;62652;42.274;-71.436;2024-01-25T03:49:00;32.10;29.63;19.20
64861;PMS5003;62652;42.274;-71.436;2024-01-25T03:50:00;37.70;33.90;18.90
64861;PMS5003;62652;42.274;-71.436;2024-01-25T03:51:00;38.23;33.33;20.10
64861;PMS5003;62652;42.274;-71.436;2024-01-25T03:52:00;40.37;34.33;19.47
64861;PMS5003;62652;42.274;-71.436;2024-01-25T03:53:01;33.73;30.97;17.90
64861;PMS5003;62652;42.274;-71.436;2024-01-25T03:54:00;37.57;31.37;18.40
64861;PMS5003;62652;42.274;-71.436;2024-01-25T03:55:00;38.37;33.00;19.20
64861;PMS5003;62652;42.274;-71.436;2024-01-25T03:56:00;32.17;27.57;17.40
64861;PMS5003;62652;42.274;-71.436;2024-01-25T03:57:00;35.00;31.57;18.20
64861;PMS5003;62652;42.274;-71.436;2024-01-25T03:58:00;29.00;26.73;17.33
64861;PMS5003;62652;42.274;-71.436;2024-01-25T03:59:00;31.17;27.13;16.70
64861;PMS5003;62652;42.274;-71.436;2024-01-25T04:00:00;36.37;29.93;19.43
64861;PMS5003;62652;42.274;-71.436;2024-01-25T04:01:00;33.67;30.93;18.47
64861;PMS5003;62652;42.274;-71.436;2024-01-25T04:02:00;28.17;26.63;16.30
64861;PMS5003;62652;42.274;-71.436;2024-01-25T04:03:00;27.67;26.23;16.70
64861;PMS5003;62652;42.274;-71.436;2024-01-25T04:04:00;30.37;29.07;17.17
64861;PMS5003;62652;42.274;-71.436;2024-01-25T04:05:00;28.10;25.33;14.17
64861;PMS5003;62652;42.274;-71.436;2024-01-25T04:06:00;21.80;20.43;13.67
64861;PMS5003;62652;42.274;-71.436;2024-01-25T04:07:00;28.33;23.10;14.70
64861;PMS5003;62652;42.274;-71.436;2024-01-25T04:08:00;27.50;25.90;16.97
64861;PMS5003;62652;42.274;-71.436;2024-01-25T04:09:00;27.40;23.00;15.53
64861;PMS5003;62652;42.274;-71.436;2024-01-25T04:10:00;23.20;22.60;14.70
64861;PMS5003;62652;42.274;-71.436;2024-01-25T04:11:00;27.80;26.10;16.23
64861;PMS5003;62652;42.274;-71.436;2024-01-25T04:12:00;27.03;25.33;16.57
64861;PMS5003;62652;42.274;-71.436;2024-01-25T04:13:00;22.90;20.73;14.97
64861;PMS5003;62652;42.274;-71.436;2024-01-25T04:14:00;26.67;23.63;15.20
64861;PMS5003;62652;42.274;-71.436;2024-01-25T04:15:01;24.53;23.47;14.87
64861;PMS5003;62652;42.274;-71.436;2024-01-25T04:16:00;22.13;19.67;14.03
64861;PMS5003;62652;42.274;-71.436;2024-01-25T04:17:00;26.17;23.27;14.77
64861;PMS5003;62652;42.274;-71.436;2024-01-25T04:18:00;23.90;22.53;16.50
64861;PMS5003;62652;42.274;-71.436;2024-01-25T04:19:00;26.40;23.60;16.73
64861;PMS5003;62652;42.274;-71.436;2024-01-25T04:20:00;24.87;23.23;15.93
64861;PMS5003;62652;42.274;-71.436;2024-01-25T04:21:00;27.13;23.47;15.47
64861;PMS5003;62652;42.274;-71.436;2024-01-25T04:22:00;24.67;23.53;14.33
64861;PMS5003;62652;42.274;-71.436;2024-01-25T04:23:00;25.53;23.07;15.47
64861;PMS5003;62652;42.274;-71.436;2024-01-25T04:24:00;23.97;21.40;14.30
64861;PMS5003;62652;42.274;-71.436;2024-01-25T04:25:00;28.37;21.20;15.13
64861;PMS5003;62652;42.274;-71.436;2024-01-25T04:26:00;29.93;26.87;16.03
64861;PMS5003;62652;42.274;-71.436;2024-01-25T04:27:00;28.03;24.47;15.00
64861;PMS5003;62652;42.274;-71.436;2024-01-25T04:28:00;22.07;20.97;14.70
64861;PMS5003;62652;42.274;-71.436;2024-01-25T04:29:00;25.17;22.93;15.87
64861;PMS5003;62652;42.274;-71.436;2024-01-25T04:30:01;23.90;22.77;17.47
64861;PMS5003;62652;42.274;-71.436;2024-01-25T04:31:01;23.77;22.00;14.47
64861;PMS5003;62652;42.274;-71.436;2024-01-25T04:32:00;25.33;24.17;16.43
64861;PMS5003;62652;42.274;-71.436;2024-01-25T04:33:01;25.80;25.00;16.40
64861;PMS5003;62652;42.274;-71.436;2024-01-25T04:34:00;31.07;28.23;15.90
64861;PMS5003;62652;42.274;-71.436;2024-01-25T04:35:00;31.67;27.53;16.23
64861;PMS5003;62652;42.274;-71.436;2024-01-25T04:36:00;28.60;25.17;15.53
64861;PMS5003;62652;42.274;-71.436;2024-01-25T04:37:00;33.27;29.27;17.07
64861;PMS5003;62652;42.274;-71.436;2024-01-25T04:38:00;28.97;26.30;16.50
64861;PMS5003;62652;42.274;-71.436;2024-01-25T04:39:00;28.30;25.37;17.03
64861;PMS5003;62652;42.274;-71.436;2024-01-25T04:40:00;26.13;25.00;15.57
64861;PMS5003;62652;42.274;-71.436;2024-01-25T04:41:00;24.53;22.30;14.77
64861;PMS5003;62652;42.274;-71.436;2024-01-25T04:42:00;21.47;21.27;13.77
64861;PMS5003;62652;42.274;-71.436;2024-01-25T04:43:00;20.30;20.00;11.87
64861;PMS5003;62652;42.274;-71.436;2024-01-25T04:44:00;23.07;22.03;14.23
64861;PMS5003;62652;42.274;-71.436;2024-01-25T04:45:00;21.53;20.53;13.37
64861;PMS5003;62652;42.274;-71.436;2024-01-25T04:46:00;19.93;18.50;12.47
64861;PMS5003;62652;42.274;-71.436;2024-01-25T04:47:00;23.47;22.43;13.77
64861;PMS5003;62652;42.274;-71.436;2024-01-25T04:48:01;24.50;22.93;14.10
64861;PMS5003;62652;42.274;-71.436;2024-01-25T04:49:00;20.67;20.30;14.03
64861;PMS5003;62652;42.274;-71.436;2024-01-25T04:50:00;20.70;20.00;13.43
64861;PMS5003;62652;42.274;-71.436;2024-01-25T04:51:00;21.80;20.40;13.13
64861;PMS5003;62652;42.274;-71.436;2024-01-25T04:52:00;26.47;24.43;14.90
64861;PMS5003;62652;42.274;-71.436;2024-01-25T04:53:01;23.07;21.60;13.00
64861;PMS5003;62652;42.274;-71.436;2024-01-25T04:54:00;19.97;18.93;12.03
64861;PMS5003;62652;42.274;-71.436;2024-01-25T04:55:00;25.27;22.53;14.33
64861;PMS5003;62652;42.274;-71.436;2024-01-25T04:56:00;15.17;12.97;8.87
64861;PMS5003;62652;42.274;-71.436;2024-01-25T04:57:00;20.57;19.53;11.10
64861;PMS5003;62652;42.274;-71.436;2024-01-25T04:58:00;15.83;14.70;9.20
64861;PMS5003;62652;42.274;-71.436;2024-01-25T04:59:02;16.67;15.90;9.60
64861;PMS5003;62652;42.274;-71.436;2024-01-25T05:00:00;13.50;11.83;8.30
64861;PMS5003;62652;42.274;-71.436;2024-01-25T05:01:00;11.27;11.20;7.93
64861;PMS5003;62652;42.274;-71.436;2024-01-25T05:02:00;12.30;11.93;8.37
64861;PMS5003;62652;42.274;-71.436;2024-01-25T05:03:00;11.43;11.13;7.80
64861;PMS5003;62652;42.274;-71.436;2024-01-25T05:04:00;12.37;11.50;7.57
64861;PMS5003;62652;42.274;-71.436;2024-01-25T05:05:00;16.90;16.00;9.93
64861;PMS5003;62652;42.274;-71.436;2024-01-25T05:06:00;11.73;11.50;7.80
64861;PMS5003;62652;42.274;-71.436;2024-01-25T05:07:00;9.87;9.73;6.83
64861;PMS5003;62652;42.274;-71.436;2024-01-25T05:08:00;11.97;10.77;8.47
64861;PMS5003;62652;42.274;-71.436;2024-01-25T05:09:00;8.87;8.20;5.93
64861;PMS5003;62652;42.274;-71.436;2024-01-25T05:10:01;9.93;9.73;6.63
64861;PMS5003;62652;42.274;-71.436;2024-01-25T05:11:00;9.83;9.47;7.13
64861;PMS5003;62652;42.274;-71.436;2024-01-25T05:12:00;10.90;10.30;6.97
64861;PMS5003;62652;42.274;-71.436;2024-01-25T05:13:00;11.87;11.60;8.07
64861;PMS5003;62652;42.274;-71.436;2024-01-25T05:14:00;12.27;12.03;7.53
64861;PMS5003;62652;42.274;-71.436;2024-01-25T05:15:00;10.67;10.57;6.80
64861;PMS5003;62652;42.274;-71.436;2024-01-25T05:16:00;9.20;8.87;6.50
64861;PMS5003;62652;42.274;-71.436;2024-01-25T05:17:00;8.20;8.20;5.63
64861;PMS5003;62652;42.274;-71.436;2024-01-25T05:18:01;8.87;8.67;6.20
64861;PMS5003;62652;42.274;-71.436;2024-01-25T05:19:00;9.27;8.40;6.00
64861;PMS5003;62652;42.274;-71.436;2024-01-25T05:20:00;9.07;8.60;6.00
64861;PMS5003;62652;42.274;-71.436;2024-01-25T05:21:00;7.80;7.00;5.33
64861;PMS5003;62652;42.274;-71.436;2024-01-25T05:22:00;7.33;7.23;4.20
64861;PMS5003;62652;42.274;-71.436;2024-01-25T05:23:01;8.33;8.00;4.87
64861;PMS5003;62652;42.274;-71.436;2024-01-25T05:24:00;7.90;6.47;5.00
64861;PMS5003;62652;42.274;-71.436;2024-01-25T05:25:00;6.97;6.97;4.23
64861;PMS5003;62652;42.274;-71.436;2024-01-25T05:26:00;7.77;7.20;4.23
64861;PMS5003;62652;42.274;-71.436;2024-01-25T05:27:00;4.70;4.70;3.70